Dromore, United Kingdom
Current Conditions -  °F | °C
As of 9:50 AM on Tuesday 21 Oct 2014 (Local Time) from EGAA Reporting Station
Rain Showers Rain Showers  
Wind Chill: 38°   Ceiling: 4900
Heat Index: 46°   Visibility: 6mi
Dew Point: 41°   Wind: 26mph
Humidity: 81%   Direction: 300°WNW
Pressure: 29.59"   Gusts: 41mph
Location:  54.41°N, 6.15°W
Report Text: EGAA 210850Z 30023G36KT 9999 SHRA FEW022 SCT027 BKN049CB 08/05 Q1002
Loading
Personal Weather Stations






























Interactive Weather Map New forecast layout! Learn more

10-Day Weather Forecast

Advertisements
Track Severe Weather on mobile